Terminal Aerodrome Forecast
Issued by NWS

Home | Current Version | Previous Version | Graphics & Text | Print | Product List | Glossary On
Versions: 1 2 3 4 5 6 7 8 9 10 11 12 13 14 15 16 17 18 19 20 21 22 23 24 25 26 27
000
FTUS43 KPAH 201849 AAA
TAFOWB
TAF AMD
KOWB 201849Z 2019/2118 22009KT P6SM BKN015
      TEMPO 2019/2021 SCT015 BKN050
     FM210400 18006KT 6SM BR OVC008
     FM211400 18009KT 4SM BR BKN004=

USA.gov is the U.S. government's official web portal to all federal, state and local government web resources and services.